createdAt,value
2022-12-04T00:01:08.994Z,3.20
2022-12-04T00:03:10.662Z,3.30
2022-12-04T00:05:12.429Z,3.30
2022-12-04T00:07:14.977Z,3.30
2022-12-04T00:09:25.526Z,3.20
2022-12-04T00:11:28.417Z,3.20
2022-12-04T00:13:29.971Z,3.20
2022-12-04T00:15:31.569Z,3.20
2022-12-04T00:17:33.157Z,3.20
2022-12-04T00:19:34.807Z,3.30
2022-12-04T00:21:36.477Z,3.20
2022-12-04T00:23:38.873Z,3.20
2022-12-04T00:25:41.491Z,3.10
2022-12-04T00:27:43.224Z,3.10
2022-12-04T00:29:44.822Z,3.10
2022-12-04T00:31:46.518Z,3.20
2022-12-04T00:33:48.422Z,3.10
2022-12-04T00:35:56.767Z,3.10
2022-12-04T00:37:58.398Z,3.10
2022-12-04T00:40:00.003Z,3.10
2022-12-04T00:42:01.620Z,3.10
2022-12-04T00:44:03.324Z,3.10
2022-12-04T00:46:05.219Z,3.20
2022-12-04T00:48:06.778Z,3.20
2022-12-04T00:50:08.611Z,3.20
2022-12-04T00:52:10.198Z,3.20
2022-12-04T00:54:11.768Z,3.20
2022-12-04T00:56:14.934Z,3.30
2022-12-04T00:58:16.500Z,3.30
2022-12-04T01:00:18.532Z,3.20
2022-12-04T01:02:20.112Z,3.20
2022-12-04T01:04:21.714Z,3.20
2022-12-04T01:06:23.319Z,3.30
2022-12-04T01:08:24.977Z,3.20
2022-12-04T01:10:28.626Z,3.20
2022-12-04T01:12:30.481Z,3.30
2022-12-04T01:14:32.013Z,3.20
2022-12-04T01:16:35.027Z,3.10
2022-12-04T01:18:36.800Z,3.20
2022-12-04T01:20:38.406Z,3.20
2022-12-04T01:22:40.254Z,3.20
2022-12-04T01:24:43.031Z,3.20
2022-12-04T01:26:44.630Z,3.20
2022-12-04T01:28:46.247Z,3.20
2022-12-04T01:31:20.148Z,3.30
2022-12-04T01:33:21.747Z,3.30
2022-12-04T01:35:23.322Z,3.20
2022-12-04T01:37:24.879Z,3.30
2022-12-04T01:39:26.410Z,3.30
2022-12-04T01:41:29.085Z,3.30
2022-12-04T01:43:31.650Z,3.20
2022-12-04T01:45:43.668Z,3.20
2022-12-04T01:47:45.355Z,3.20
2022-12-04T01:49:48.633Z,3.30
2022-12-04T01:51:52.988Z,3.30
2022-12-04T01:53:56.032Z,3.20
2022-12-04T01:55:57.591Z,3.20
2022-12-04T01:58:00.442Z,3.20
2022-12-04T02:00:04.589Z,3.30
2022-12-04T02:02:10.487Z,3.30
2022-12-04T02:04:12.100Z,3.30
2022-12-04T02:06:13.678Z,3.20
2022-12-04T02:08:15.730Z,3.20
2022-12-04T02:10:24.261Z,3.20
2022-12-04T02:12:38.110Z,3.20
2022-12-04T02:14:45.983Z,3.20
2022-12-04T02:16:53.973Z,3.20
2022-12-04T02:19:00.323Z,3.20
2022-12-04T02:21:05.049Z,3.20
2022-12-04T02:23:06.606Z,3.30
2022-12-04T02:25:20.352Z,3.20
2022-12-04T02:27:40.223Z,3.20
2022-12-04T02:29:51.311Z,3.20
2022-12-04T02:31:52.888Z,3.20
2022-12-04T02:33:59.295Z,3.20
2022-12-04T02:36:13.024Z,3.30
2022-12-04T02:38:44.062Z,3.30
2022-12-04T02:41:06.667Z,3.10
2022-12-04T02:43:12.674Z,3.20
2022-12-04T02:45:20.099Z,3.10
2022-12-04T02:47:23.253Z,3.20
2022-12-04T02:49:45.364Z,3.20
2022-12-04T02:51:48.508Z,3.20
2022-12-04T02:53:52.254Z,3.20
2022-12-04T02:55:56.422Z,3.20
2022-12-04T02:58:00.723Z,3.30
2022-12-04T03:00:05.461Z,3.20
2022-12-04T03:02:19.116Z,3.20
2022-12-04T03:04:22.243Z,3.20
2022-12-04T03:06:25.514Z,3.20
2022-12-04T03:08:29.728Z,3.20
2022-12-04T03:10:36.141Z,3.20
2022-12-04T03:12:43.788Z,3.20
2022-12-04T03:14:52.106Z,3.20
2022-12-04T03:16:58.427Z,3.20
2022-12-04T03:19:06.011Z,3.10
2022-12-04T03:21:13.114Z,3.20
2022-12-04T03:23:17.964Z,3.20
2022-12-04T03:25:19.605Z,3.20
2022-12-04T03:27:38.386Z,3.30
2022-12-04T03:29:50.087Z,3.20
2022-12-04T03:31:56.395Z,3.20
2022-12-04T03:33:58.606Z,3.10
2022-12-04T03:36:04.230Z,3.10
2022-12-04T03:38:08.669Z,3.10
2022-12-04T03:40:13.753Z,3.10
2022-12-04T03:42:18.737Z,3.10
2022-12-04T03:44:22.595Z,3.10
2022-12-04T03:46:27.431Z,3.20
2022-12-04T03:48:44.868Z,3.10
2022-12-04T03:50:57.434Z,3.10
2022-12-04T03:52:59.017Z,3.10
2022-12-04T03:55:08.766Z,3.10
2022-12-04T03:57:14.821Z,3.10
2022-12-04T03:59:22.430Z,3.10
2022-12-04T04:01:27.528Z,3.10
2022-12-04T04:03:31.579Z,3.20
2022-12-04T04:05:34.150Z,3.20
2022-12-04T04:07:40.243Z,3.20
2022-12-04T04:09:45.014Z,3.20
2022-12-04T04:11:52.121Z,3.10
2022-12-04T04:14:32.552Z,3.20
2022-12-04T04:16:53.667Z,3.30
2022-12-04T04:19:16.341Z,3.20
2022-12-04T04:21:42.004Z,3.20
2022-12-04T04:24:04.499Z,3.10
2022-12-04T04:26:07.284Z,3.20
2022-12-04T04:28:47.600Z,3.20
2022-12-04T04:30:49.263Z,3.20
2022-12-04T04:32:56.811Z,3.20
2022-12-04T04:35:07.559Z,3.20
2022-12-04T04:37:15.134Z,3.10
2022-12-04T04:39:26.556Z,3.00
2022-12-04T04:41:34.269Z,3.00
2022-12-04T04:43:39.850Z,3.10
2022-12-04T04:45:52.760Z,3.10
2022-12-04T04:48:03.043Z,3.10
2022-12-04T04:50:07.176Z,3.00
2022-12-04T04:52:09.217Z,3.00
2022-12-04T04:54:13.348Z,3.00
2022-12-04T04:56:14.970Z,3.00
2022-12-04T04:58:17.618Z,3.10
2022-12-04T05:00:20.690Z,3.00
2022-12-04T05:02:22.504Z,3.10
2022-12-04T05:04:24.080Z,3.00
2022-12-04T05:06:25.646Z,3.10
2022-12-04T05:08:27.182Z,3.30
2022-12-04T05:10:28.817Z,3.20
2022-12-04T05:12:30.507Z,3.20
2022-12-04T05:14:32.404Z,3.20
2022-12-04T05:16:34.247Z,3.20
2022-12-04T05:18:35.981Z,3.20
2022-12-04T05:20:40.730Z,3.20
2022-12-04T05:22:42.347Z,3.10
2022-12-04T05:24:43.894Z,3.10
2022-12-04T05:26:45.497Z,3.20
2022-12-04T05:28:47.115Z,3.10
2022-12-04T05:30:54.415Z,3.10
2022-12-04T05:32:56.017Z,3.10
2022-12-04T05:34:58.044Z,3.10
2022-12-04T05:36:59.714Z,3.20
2022-12-04T05:39:01.392Z,3.20
2022-12-04T05:41:03.965Z,3.10
2022-12-04T05:43:05.564Z,3.00
2022-12-04T05:45:07.447Z,3.00
2022-12-04T05:47:09.443Z,3.10
2022-12-04T05:49:11.066Z,3.10
2022-12-04T05:51:12.659Z,3.10
2022-12-04T05:53:14.258Z,3.20
2022-12-04T05:55:15.859Z,3.10
2022-12-04T05:57:17.394Z,3.10
2022-12-04T05:59:19.241Z,3.10
2022-12-04T06:01:22.277Z,3.10
2022-12-04T06:03:24.085Z,3.10
2022-12-04T06:05:25.760Z,3.20
2022-12-04T06:07:27.428Z,3.30
2022-12-04T06:09:29.069Z,3.30
2022-12-04T06:11:32.272Z,3.20
2022-12-04T06:13:33.859Z,3.30
2022-12-04T06:15:38.763Z,3.20
2022-12-04T06:17:41.388Z,3.30
2022-12-04T06:19:43.011Z,3.20
2022-12-04T06:21:45.723Z,3.10
2022-12-04T06:23:47.370Z,3.20
2022-12-04T06:25:49.016Z,3.30
2022-12-04T06:27:51.220Z,3.20
2022-12-04T06:29:52.898Z,3.30
2022-12-04T06:31:54.656Z,3.20
2022-12-04T06:33:57.206Z,3.20
2022-12-04T06:35:59.969Z,3.10
2022-12-04T06:38:01.518Z,3.20
2022-12-04T06:40:03.413Z,3.20
2022-12-04T06:42:04.978Z,3.20
2022-12-04T06:44:06.557Z,3.20
2022-12-04T06:46:19.007Z,3.10
2022-12-04T06:48:20.648Z,3.10
2022-12-04T06:50:22.202Z,3.10
2022-12-04T06:52:23.785Z,3.10
2022-12-04T06:54:26.043Z,3.10
2022-12-04T06:56:29.460Z,3.00
2022-12-04T06:58:31.175Z,3.00
2022-12-04T07:00:32.784Z,3.10
2022-12-04T07:02:34.462Z,3.10
2022-12-04T07:04:36.242Z,3.10
2022-12-04T07:06:38.491Z,3.10
2022-12-04T07:08:40.428Z,3.20
2022-12-04T07:10:42.352Z,3.20
2022-12-04T07:12:43.905Z,3.10
2022-12-04T07:14:45.554Z,3.20
2022-12-04T07:16:47.143Z,3.10
2022-12-04T07:18:53.763Z,3.10
2022-12-04T07:20:55.408Z,3.10
2022-12-04T07:22:58.564Z,3.10
2022-12-04T07:25:01.833Z,3.20
2022-12-04T07:27:04.022Z,3.10
2022-12-04T07:29:05.663Z,3.10
2022-12-04T07:31:07.969Z,3.10
2022-12-04T07:33:09.506Z,3.20
2022-12-04T07:35:11.081Z,3.10
2022-12-04T07:37:12.685Z,3.10
2022-12-04T07:39:14.340Z,3.10
2022-12-04T07:41:16.226Z,3.10
2022-12-04T07:43:17.762Z,3.20
2022-12-04T07:45:20.814Z,3.10
2022-12-04T07:47:22.399Z,3.10
2022-12-04T07:49:24.032Z,3.20
2022-12-04T07:51:26.686Z,3.20
2022-12-04T07:53:28.225Z,3.20
2022-12-04T07:55:29.772Z,3.30
2022-12-04T07:57:31.323Z,3.30
2022-12-04T07:59:34.786Z,3.30
2022-12-04T08:01:36.393Z,3.30
2022-12-04T08:03:43.513Z,3.20
2022-12-04T08:05:47.077Z,3.30
2022-12-04T08:07:48.737Z,3.20
2022-12-04T08:09:50.375Z,3.30
2022-12-04T08:11:51.948Z,3.30
2022-12-04T08:13:57.805Z,3.30
2022-12-04T08:16:02.923Z,3.30
2022-12-04T08:18:04.515Z,3.30
2022-12-04T08:20:06.535Z,3.40
2022-12-04T08:22:08.194Z,3.40
2022-12-04T08:24:09.796Z,3.40
2022-12-04T08:26:11.708Z,3.50
2022-12-04T08:28:13.259Z,3.50
2022-12-04T08:30:15.000Z,3.60
2022-12-04T08:32:16.598Z,3.60
2022-12-04T08:34:18.238Z,3.50
2022-12-04T08:36:20.817Z,3.50
2022-12-04T08:38:22.495Z,3.50
2022-12-04T08:40:24.051Z,3.50
2022-12-04T08:42:25.621Z,3.50
2022-12-04T08:44:28.190Z,3.50
2022-12-04T08:46:36.154Z,3.60
2022-12-04T08:48:38.220Z,3.60
2022-12-04T08:50:44.136Z,3.60
2022-12-04T08:56:04.136Z,3.90
2022-12-04T08:58:05.739Z,3.90
2022-12-04T09:00:07.903Z,3.80
2022-12-04T09:02:10.514Z,3.70
2022-12-04T09:04:12.255Z,3.80
2022-12-04T09:06:14.769Z,3.80
2022-12-04T09:08:16.927Z,3.80
2022-12-04T09:10:18.823Z,3.90
2022-12-04T09:12:20.483Z,3.80
2022-12-04T09:14:25.964Z,3.70
2022-12-04T09:16:28.469Z,3.80
2022-12-04T09:18:30.134Z,3.80
2022-12-04T09:20:31.734Z,3.70
2022-12-04T09:23:01.786Z,3.80
2022-12-04T09:24:55.959Z,3.80
2022-12-04T09:26:57.644Z,3.70
2022-12-04T09:29:00.475Z,3.70
2022-12-04T09:31:14.075Z,3.70
2022-12-04T09:33:24.917Z,3.70
2022-12-04T09:35:26.855Z,3.80
2022-12-04T09:37:28.462Z,3.90
2022-12-04T09:39:30.095Z,3.90
2022-12-04T09:41:31.732Z,3.90
2022-12-04T09:43:36.394Z,3.80
2022-12-04T09:45:41.998Z,3.80
2022-12-04T09:47:45.074Z,3.90
2022-12-04T09:50:01.635Z,3.80
2022-12-04T09:52:06.336Z,3.80
2022-12-04T09:54:13.948Z,3.90
2022-12-04T09:56:19.773Z,3.80
2022-12-04T09:58:23.408Z,3.80
2022-12-04T10:00:26.405Z,3.80
2022-12-04T10:02:48.349Z,3.60
2022-12-04T10:04:50.112Z,3.60
2022-12-04T10:07:01.448Z,3.50
2022-12-04T10:09:08.028Z,3.50
2022-12-04T10:11:17.063Z,3.60
2022-12-04T10:13:18.608Z,3.70
2022-12-04T10:15:26.246Z,3.70
2022-12-04T10:17:42.825Z,3.70
2022-12-04T10:20:12.503Z,3.70
2022-12-04T10:22:17.174Z,3.70
2022-12-04T10:24:57.695Z,3.50
2022-12-04T10:27:01.642Z,3.60
2022-12-04T10:29:06.361Z,3.50
2022-12-04T10:31:11.008Z,3.50
2022-12-04T10:33:12.860Z,3.40
2022-12-04T10:35:31.547Z,3.50
2022-12-04T10:37:34.333Z,3.50
2022-12-04T10:39:43.577Z,3.70
2022-12-04T10:41:49.164Z,3.80
2022-12-04T10:43:50.941Z,3.90
2022-12-04T10:45:52.805Z,3.80
2022-12-04T10:47:54.501Z,3.70
2022-12-04T10:49:59.130Z,3.60
2022-12-04T10:52:01.268Z,3.70
2022-12-04T10:54:09.517Z,3.70
2022-12-04T10:56:15.995Z,3.70
2022-12-04T10:58:18.669Z,3.80
2022-12-04T11:00:24.365Z,3.80
2022-12-04T11:02:27.851Z,3.70
2022-12-04T11:04:30.826Z,3.70
2022-12-04T11:06:32.653Z,3.70
2022-12-04T11:08:53.416Z,3.70
2022-12-04T11:11:05.317Z,3.70
2022-12-04T11:13:14.418Z,3.70
2022-12-04T11:15:17.627Z,3.50
2022-12-04T11:17:19.468Z,3.60
2022-12-04T11:19:25.104Z,3.60
2022-12-04T11:21:28.561Z,3.80
2022-12-04T11:23:32.389Z,3.70
2022-12-04T11:25:37.236Z,3.60
2022-12-04T11:27:38.864Z,3.50
2022-12-04T11:29:45.515Z,3.50
2022-12-04T11:31:50.297Z,3.50
2022-12-04T11:33:58.069Z,3.60
2022-12-04T11:36:01.620Z,3.70
2022-12-04T11:38:07.731Z,3.80
2022-12-04T11:40:16.602Z,3.80
2022-12-04T11:42:22.500Z,3.70
2022-12-04T11:44:28.799Z,3.60
2022-12-04T11:46:31.719Z,3.60
2022-12-04T11:48:42.128Z,3.70
2022-12-04T11:50:54.343Z,3.80
2022-12-04T11:53:11.544Z,3.80
2022-12-04T11:55:17.643Z,3.80
2022-12-04T11:57:19.202Z,3.70
2022-12-04T11:59:27.364Z,3.80
2022-12-04T12:01:35.120Z,3.80
2022-12-04T12:03:55.551Z,3.80
2022-12-04T12:06:00.172Z,3.70
2022-12-04T12:08:14.401Z,3.80
2022-12-04T12:10:22.045Z,3.90
2022-12-04T12:12:35.913Z,3.80
2022-12-04T12:14:49.162Z,3.90
2022-12-04T12:17:23.913Z,3.90
2022-12-04T12:19:44.112Z,3.90
2022-12-04T12:22:00.648Z,4.10
2022-12-04T12:24:26.121Z,3.90
2022-12-04T12:26:34.356Z,3.70
2022-12-04T12:28:39.815Z,3.70
2022-12-04T12:30:41.432Z,3.70
2022-12-04T12:33:01.199Z,3.80
2022-12-04T12:35:04.997Z,3.90
2022-12-04T12:37:16.454Z,4.10
2022-12-04T12:39:26.620Z,4.10
2022-12-04T12:41:32.232Z,4.00
2022-12-04T12:43:35.993Z,4.00
2022-12-04T12:45:41.966Z,4.10
2022-12-04T12:47:45.595Z,4.00
2022-12-04T12:50:02.032Z,4.00
2022-12-04T12:52:12.775Z,4.00
2022-12-04T12:54:33.033Z,3.90
2022-12-04T12:56:59.572Z,3.80
2022-12-04T12:59:03.885Z,3.80
2022-12-04T13:01:24.519Z,3.80
2022-12-04T13:03:30.350Z,3.80
2022-12-04T13:05:44.197Z,4.00
2022-12-04T13:08:04.652Z,4.00
2022-12-04T13:10:06.548Z,4.10
2022-12-04T13:12:12.513Z,3.90
2022-12-04T13:14:14.282Z,3.90
2022-12-04T13:16:24.513Z,3.90
2022-12-04T13:18:28.938Z,3.90
2022-12-04T13:20:33.893Z,4.00
2022-12-04T13:22:35.596Z,4.00
2022-12-04T13:24:49.526Z,4.00
2022-12-04T13:26:54.451Z,3.90
2022-12-04T13:29:16.062Z,3.80
2022-12-04T13:31:25.074Z,3.70
2022-12-04T13:33:32.801Z,3.70
2022-12-04T13:35:47.772Z,3.70
2022-12-04T13:38:08.083Z,3.90
2022-12-04T13:40:09.688Z,4.00
2022-12-04T13:42:22.833Z,3.90
2022-12-04T13:44:25.201Z,3.90
2022-12-04T13:46:26.955Z,3.90
2022-12-04T13:48:28.653Z,3.80
2022-12-04T13:50:31.890Z,3.70
2022-12-04T13:52:40.935Z,3.70
2022-12-04T13:54:42.561Z,3.80
2022-12-04T13:56:49.128Z,3.90
2022-12-04T13:58:58.946Z,4.00
2022-12-04T14:01:20.633Z,4.00
2022-12-04T14:03:28.444Z,3.90
2022-12-04T14:05:32.763Z,3.90
2022-12-04T14:07:37.323Z,3.70
2022-12-04T14:09:40.866Z,3.80
2022-12-04T14:11:45.083Z,3.80
2022-12-04T14:13:48.583Z,3.90
2022-12-04T14:16:02.601Z,4.00
2022-12-04T14:18:13.844Z,4.00
2022-12-04T14:20:26.234Z,4.00
2022-12-04T14:22:27.847Z,4.00
2022-12-04T14:24:31.756Z,3.90
2022-12-04T14:26:55.833Z,3.90
2022-12-04T14:29:13.647Z,4.00
2022-12-04T14:31:34.030Z,3.90
2022-12-04T14:33:57.457Z,3.90
2022-12-04T14:36:08.360Z,3.90
2022-12-04T14:38:15.259Z,4.00
2022-12-04T14:40:22.390Z,3.90
2022-12-04T14:42:28.020Z,3.90
2022-12-04T14:44:31.859Z,3.90
2022-12-04T14:47:04.196Z,3.80
2022-12-04T14:49:26.692Z,3.80
2022-12-04T14:51:34.102Z,3.80
2022-12-04T14:53:45.683Z,3.70
2022-12-04T14:56:07.264Z,3.60
2022-12-04T14:58:32.524Z,3.70
2022-12-04T15:00:34.178Z,3.70
2022-12-04T15:02:40.330Z,3.70
2022-12-04T15:04:46.263Z,3.80
2022-12-04T15:06:49.365Z,3.70
2022-12-04T15:09:18.365Z,3.70
2022-12-04T15:11:39.077Z,3.70
2022-12-04T15:13:40.696Z,3.80
2022-12-04T15:15:46.195Z,3.80
2022-12-04T15:17:57.601Z,3.80
2022-12-04T15:20:07.736Z,3.80
2022-12-04T15:22:18.254Z,3.70
2022-12-04T15:24:20.339Z,3.70
2022-12-04T15:26:23.012Z,3.80
2022-12-04T15:28:28.549Z,3.90
2022-12-04T15:30:31.058Z,3.90
2022-12-04T15:32:33.180Z,3.90
2022-12-04T15:34:41.550Z,3.90
2022-12-04T15:36:46.266Z,3.90
2022-12-04T15:38:49.248Z,3.90
2022-12-04T15:40:55.183Z,3.90
2022-12-04T15:43:06.623Z,3.90
2022-12-04T15:45:08.247Z,3.90
2022-12-04T15:47:17.394Z,4.00
2022-12-04T15:49:20.382Z,3.90
2022-12-04T15:51:22.216Z,4.00
2022-12-04T15:53:26.567Z,3.90
2022-12-04T15:55:29.636Z,3.80
2022-12-04T15:57:38.637Z,3.80
2022-12-04T15:59:40.334Z,3.80
2022-12-04T16:01:42.110Z,4.00
2022-12-04T16:03:43.829Z,3.90
2022-12-04T16:05:45.542Z,3.90
2022-12-04T16:07:54.861Z,4.00
2022-12-04T16:10:03.271Z,3.90
2022-12-04T16:12:19.856Z,3.90
2022-12-04T16:14:21.448Z,4.00
2022-12-04T16:16:23.156Z,3.90
2022-12-04T16:18:24.939Z,3.90
2022-12-04T16:20:26.586Z,4.00
2022-12-04T16:22:30.152Z,4.00
2022-12-04T16:24:31.851Z,3.80
2022-12-04T16:26:33.915Z,3.80
2022-12-04T16:28:35.611Z,3.80
2022-12-04T16:30:37.467Z,3.80
2022-12-04T16:32:39.145Z,3.80
2022-12-04T16:34:40.852Z,3.80
2022-12-04T16:36:42.470Z,3.90
2022-12-04T16:38:44.085Z,3.90
2022-12-04T16:40:45.932Z,3.90
2022-12-04T16:42:47.537Z,3.90
2022-12-04T16:44:49.452Z,3.80
2022-12-04T16:46:51.359Z,3.80
2022-12-04T16:48:53.104Z,3.60
2022-12-04T16:50:54.737Z,3.80
2022-12-04T16:52:56.422Z,3.70
2022-12-04T16:55:03.099Z,3.60
2022-12-04T16:57:07.225Z,3.70
2022-12-04T16:59:17.162Z,3.80
2022-12-04T17:01:34.060Z,3.60
2022-12-04T17:03:50.850Z,3.60
2022-12-04T17:06:00.951Z,3.70
2022-12-04T17:08:08.677Z,3.80
2022-12-04T17:10:10.678Z,3.80
2022-12-04T17:12:12.290Z,3.80
2022-12-04T17:14:14.911Z,3.70
2022-12-04T17:16:19.560Z,3.60
2022-12-04T17:18:21.838Z,3.70
2022-12-04T17:20:23.560Z,3.80
2022-12-04T17:22:26.535Z,3.80
2022-12-04T17:24:28.181Z,3.80
2022-12-04T17:26:29.865Z,3.80
2022-12-04T17:28:31.655Z,3.80
2022-12-04T17:30:36.199Z,3.70
2022-12-04T17:32:38.277Z,3.70
2022-12-04T17:34:39.869Z,3.50
2022-12-04T17:36:41.488Z,3.50
2022-12-04T17:38:43.123Z,3.50
2022-12-04T17:40:44.761Z,3.50
2022-12-04T17:42:46.421Z,3.50
2022-12-04T17:44:48.202Z,3.70
2022-12-04T17:46:49.877Z,3.70
2022-12-04T17:48:51.676Z,3.70
2022-12-04T17:51:03.883Z,3.60
2022-12-04T17:53:05.494Z,3.50
2022-12-04T17:55:08.977Z,3.40
2022-12-04T17:57:10.776Z,3.30
2022-12-04T17:59:12.633Z,3.40
2022-12-04T18:01:15.770Z,3.50
2022-12-04T18:03:17.657Z,3.50
2022-12-04T18:05:19.391Z,3.60
2022-12-04T18:07:21.173Z,3.80
2022-12-04T18:09:23.270Z,3.80
2022-12-04T18:11:26.182Z,3.80
2022-12-04T18:13:27.816Z,3.70
2022-12-04T18:15:29.497Z,3.80
2022-12-04T18:17:31.483Z,3.70
2022-12-04T18:19:33.133Z,3.80
2022-12-04T18:21:35.016Z,3.80
2022-12-04T18:23:57.175Z,3.90
2022-12-04T18:25:59.791Z,3.90
2022-12-04T18:28:01.484Z,3.90
2022-12-04T18:30:03.275Z,3.80
2022-12-04T18:32:05.090Z,3.90
2022-12-04T18:34:07.210Z,3.90
2022-12-04T18:36:13.346Z,3.90
2022-12-04T18:38:14.998Z,4.00
2022-12-04T18:40:16.775Z,4.00
2022-12-04T18:42:18.485Z,3.90
2022-12-04T18:44:20.408Z,3.80
2022-12-04T18:46:22.592Z,3.80
2022-12-04T18:48:24.356Z,3.80
2022-12-04T18:50:26.025Z,4.00
2022-12-04T18:52:27.761Z,4.00
2022-12-04T18:54:53.570Z,3.90
2022-12-04T18:57:43.704Z,3.80
2022-12-04T19:20:18.264Z,3.60
2022-12-04T19:22:20.152Z,3.60
2022-12-04T19:24:24.261Z,3.60
2022-12-04T19:26:26.691Z,3.60
2022-12-04T19:28:28.405Z,3.60
2022-12-04T19:30:30.252Z,3.60
2022-12-04T19:32:32.668Z,3.60
2022-12-04T19:34:34.450Z,3.60
2022-12-04T19:36:36.206Z,3.60
2022-12-04T19:38:38.325Z,3.60
2022-12-04T19:40:40.151Z,3.70
2022-12-04T19:42:41.821Z,3.70
2022-12-04T19:44:50.456Z,3.70
2022-12-04T19:46:52.226Z,3.60
2022-12-04T19:48:54.795Z,3.50
2022-12-04T19:50:56.440Z,3.60
2022-12-04T19:52:58.071Z,3.70
2022-12-04T19:54:59.650Z,3.70
2022-12-04T19:57:01.431Z,3.60
2022-12-04T19:59:04.035Z,3.70
2022-12-04T20:01:06.942Z,3.70
2022-12-04T20:03:08.599Z,3.70
2022-12-04T20:05:10.454Z,3.80
2022-12-04T20:07:12.146Z,3.80
2022-12-04T20:09:15.417Z,3.80
2022-12-04T20:11:17.889Z,3.90
2022-12-04T20:13:22.264Z,3.90
2022-12-04T20:15:23.918Z,3.90
2022-12-04T20:17:25.879Z,3.90
2022-12-04T20:19:27.639Z,3.90
2022-12-04T20:21:30.845Z,3.90
2022-12-04T20:23:32.494Z,3.90
2022-12-04T20:25:36.223Z,3.80
2022-12-04T20:27:37.916Z,3.90
2022-12-04T20:29:39.567Z,3.80
2022-12-04T20:31:42.647Z,3.80
2022-12-04T20:33:44.827Z,3.70
2022-12-04T20:35:46.428Z,3.70
2022-12-04T20:37:48.037Z,3.70
2022-12-04T20:39:49.774Z,3.70
2022-12-04T20:41:51.405Z,3.70
2022-12-04T20:43:53.039Z,3.70
2022-12-04T20:45:54.719Z,3.70
2022-12-04T20:47:56.418Z,3.70
2022-12-04T20:49:58.211Z,3.70
2022-12-04T20:52:00.140Z,3.70
2022-12-04T20:54:02.328Z,3.70
2022-12-04T20:56:04.078Z,3.80
2022-12-04T20:58:06.117Z,3.90
2022-12-04T21:00:08.312Z,3.80
2022-12-04T21:02:10.858Z,3.80
2022-12-04T21:04:17.692Z,3.80
2022-12-04T21:06:21.177Z,3.70
2022-12-04T21:08:42.735Z,3.70
2022-12-04T21:10:45.857Z,3.70
2022-12-04T21:13:06.164Z,3.80
2022-12-04T21:15:26.877Z,3.80
2022-12-04T21:17:28.606Z,3.80
2022-12-04T21:19:30.367Z,3.90
2022-12-04T21:21:32.035Z,3.90
2022-12-04T21:23:35.829Z,3.90
2022-12-04T21:25:40.719Z,3.90
2022-12-04T21:27:42.396Z,3.90
2022-12-04T21:29:43.994Z,4.00
2022-12-04T21:31:45.713Z,3.90
2022-12-04T21:33:47.500Z,4.00
2022-12-04T21:35:49.219Z,4.00
2022-12-04T21:37:50.914Z,4.00
2022-12-04T21:39:52.608Z,4.10
2022-12-04T21:42:12.780Z,3.90
2022-12-04T21:44:16.344Z,3.90
2022-12-04T21:46:21.143Z,3.90
2022-12-04T21:48:22.882Z,3.90
2022-12-04T21:50:24.553Z,3.90
2022-12-04T21:52:26.290Z,4.00
2022-12-04T21:54:27.952Z,4.00
2022-12-04T21:56:30.191Z,4.00
2022-12-04T21:58:31.775Z,4.00
2022-12-04T22:00:33.344Z,4.00
2022-12-04T22:02:36.304Z,3.90
2022-12-04T22:04:38.156Z,3.80
2022-12-04T22:06:39.876Z,3.90
2022-12-04T22:08:41.846Z,3.80
2022-12-04T22:10:44.176Z,3.80
2022-12-04T22:12:50.316Z,3.80
2022-12-04T22:14:52.485Z,3.80
2022-12-04T22:16:54.609Z,3.80
2022-12-04T22:18:56.946Z,3.80
2022-12-04T22:20:58.571Z,3.90
2022-12-04T22:23:00.487Z,3.80
2022-12-04T22:25:02.160Z,3.70
2022-12-04T22:27:04.042Z,3.80
2022-12-04T22:29:33.709Z,3.70
2022-12-04T22:31:28.859Z,3.70
2022-12-04T22:33:30.559Z,3.70
2022-12-04T22:35:32.753Z,3.70
2022-12-04T22:37:35.195Z,3.70
2022-12-04T22:39:38.356Z,3.70
2022-12-04T22:41:40.027Z,3.70
2022-12-04T22:43:42.033Z,3.70
2022-12-04T22:45:43.950Z,3.80
2022-12-04T22:47:45.571Z,3.80
2022-12-04T22:49:47.301Z,3.80
2022-12-04T22:51:48.909Z,3.80
2022-12-04T22:53:52.005Z,3.70
2022-12-04T22:55:53.826Z,3.60
2022-12-04T22:57:55.538Z,3.60
2022-12-04T22:59:57.375Z,3.60
2022-12-04T23:02:00.313Z,3.60
2022-12-04T23:04:02.749Z,3.60
2022-12-04T23:06:04.479Z,3.60
2022-12-04T23:08:06.443Z,3.60
2022-12-04T23:10:08.610Z,3.80
2022-12-04T23:12:10.278Z,3.80
2022-12-04T23:14:13.440Z,3.80
2022-12-04T23:16:19.875Z,3.80
2022-12-04T23:18:22.137Z,3.80
2022-12-04T23:20:23.793Z,3.80
2022-12-04T23:22:25.487Z,3.80
2022-12-04T23:24:27.201Z,3.80
2022-12-04T23:26:32.939Z,3.80
2022-12-04T23:28:34.847Z,3.70
2022-12-04T23:30:36.842Z,3.80
2022-12-04T23:32:38.616Z,3.60
2022-12-04T23:34:40.250Z,3.70
2022-12-04T23:36:42.264Z,3.70
2022-12-04T23:38:44.585Z,3.70
2022-12-04T23:40:46.276Z,3.70
2022-12-04T23:42:47.886Z,3.70
2022-12-04T23:44:49.495Z,3.70
2022-12-04T23:46:51.245Z,3.70
2022-12-04T23:48:53.121Z,3.70
2022-12-04T23:50:54.871Z,3.70
2022-12-04T23:52:56.488Z,3.70
2022-12-04T23:54:58.125Z,3.70
2022-12-04T23:56:59.765Z,3.70
2022-12-04T23:59:01.360Z,3.70
